createdAt,value
2022-08-17T00:01:30.109Z,22.17
2022-08-17T00:04:09.270Z,22.08
2022-08-17T00:06:37.248Z,21.97
2022-08-17T00:09:05.550Z,21.92
2022-08-17T00:11:34.434Z,22.02
2022-08-17T00:14:07.400Z,21.89
2022-08-17T00:16:56.572Z,21.85
2022-08-17T00:19:25.273Z,21.75
2022-08-17T00:22:32.032Z,21.56
2022-08-17T00:24:42.797Z,21.50
2022-08-17T00:27:09.208Z,21.35
2022-08-17T00:29:35.562Z,21.36
2022-08-17T00:33:13.692Z,21.25
2022-08-17T00:34:49.848Z,21.17
2022-08-17T00:37:16.427Z,21.14
2022-08-17T00:39:42.903Z,21.12
2022-08-17T00:42:17.816Z,21.14
2022-08-17T00:44:44.775Z,21.00
2022-08-17T00:47:11.149Z,21.10
2022-08-17T00:49:37.559Z,21.09
2022-08-17T00:52:15.250Z,21.13
2022-08-17T00:54:45.142Z,21.21
2022-08-17T00:57:17.484Z,21.06
2022-08-17T00:59:56.015Z,21.06
2022-08-17T01:02:34.230Z,20.93
2022-08-17T01:05:07.759Z,20.84
2022-08-17T01:07:34.537Z,20.72
2022-08-17T01:10:57.142Z,20.67
2022-08-17T01:12:56.743Z,20.71
2022-08-17T01:15:23.553Z,20.70
2022-08-17T01:17:50.236Z,20.67
2022-08-17T01:20:16.873Z,20.60
2022-08-17T01:22:43.451Z,20.50
2022-08-17T01:25:12.735Z,20.31
2022-08-17T01:27:41.263Z,20.33
2022-08-17T01:30:56.923Z,20.28
2022-08-17T01:32:57.215Z,20.26
2022-08-17T01:35:24.125Z,20.20
2022-08-17T01:37:50.601Z,20.26
2022-08-17T01:40:31.145Z,20.20
2022-08-17T01:43:03.374Z,20.05
2022-08-17T01:45:33.736Z,19.96
2022-08-17T01:48:00.909Z,19.90
2022-08-17T01:50:30.764Z,19.87
2022-08-17T01:53:04.403Z,19.86
2022-08-17T01:55:36.864Z,19.73
2022-08-17T01:58:03.550Z,19.73
2022-08-17T02:00:59.392Z,19.74
2022-08-17T02:03:17.168Z,19.54
2022-08-17T02:05:44.375Z,19.45
2022-08-17T02:08:20.182Z,19.48
2022-08-17T02:10:48.509Z,19.49
2022-08-17T02:13:15.222Z,19.46
2022-08-17T02:15:42.232Z,19.31
2022-08-17T02:18:10.232Z,19.34
2022-08-17T02:20:42.631Z,19.35
2022-08-17T02:23:11.771Z,19.29
2022-08-17T02:25:39.570Z,19.34
2022-08-17T02:28:06.041Z,19.21
2022-08-17T02:30:59.802Z,19.24
2022-08-17T02:33:19.987Z,19.22
2022-08-17T02:35:46.760Z,19.29
2022-08-17T02:38:13.192Z,19.14
2022-08-17T02:40:40.557Z,19.11
2022-08-17T02:43:08.813Z,19.12
2022-08-17T02:45:35.746Z,19.06
2022-08-17T02:48:03.169Z,19.06
2022-08-17T02:50:29.958Z,19.06
2022-08-17T02:53:02.109Z,18.97
2022-08-17T02:55:40.820Z,19.01
2022-08-17T02:58:10.457Z,19.00
2022-08-17T03:00:41.146Z,19.02
2022-08-17T03:03:08.634Z,19.01
2022-08-17T03:05:36.967Z,18.91
2022-08-17T03:08:06.095Z,18.78
2022-08-17T03:10:32.876Z,18.96
2022-08-17T03:12:59.694Z,18.89
2022-08-17T03:15:29.256Z,18.92
2022-08-17T03:17:56.692Z,18.89
2022-08-17T03:20:25.354Z,18.94
2022-08-17T03:22:55.010Z,18.98
2022-08-17T03:25:31.601Z,18.88
2022-08-17T03:28:00.882Z,18.85
2022-08-17T03:30:28.794Z,18.71
2022-08-17T03:32:57.811Z,18.73
2022-08-17T03:35:27.051Z,18.82
2022-08-17T03:38:00.825Z,18.80
2022-08-17T03:40:55.592Z,18.71
2022-08-17T03:43:15.980Z,18.60
2022-08-17T03:46:01.587Z,18.64
2022-08-17T03:48:46.339Z,18.65
2022-08-17T03:51:43.456Z,18.70
2022-08-17T03:54:29.605Z,18.58
2022-08-17T03:57:02.731Z,18.44
2022-08-17T03:59:29.328Z,18.33
2022-08-17T04:01:59.017Z,18.29
2022-08-17T04:04:27.568Z,18.36
2022-08-17T04:06:54.190Z,18.44
2022-08-17T04:09:20.695Z,18.48
2022-08-17T04:11:47.657Z,18.46
2022-08-17T04:14:14.217Z,18.33
2022-08-17T04:16:40.971Z,18.32
2022-08-17T04:19:07.479Z,18.34
2022-08-17T04:21:34.806Z,18.40
2022-08-17T04:24:02.192Z,18.46
2022-08-17T04:26:53.175Z,18.44
2022-08-17T04:29:16.973Z,18.45
2022-08-17T04:31:44.338Z,18.49
2022-08-17T04:34:11.691Z,18.45
2022-08-17T04:36:38.127Z,18.50
2022-08-17T04:39:05.225Z,18.42
2022-08-17T04:41:50.026Z,18.52
2022-08-17T04:44:37.050Z,18.51
2022-08-17T04:47:03.074Z,18.60
2022-08-17T04:49:29.515Z,18.64
2022-08-17T04:51:59.068Z,18.64
2022-08-17T04:54:29.073Z,18.59
2022-08-17T04:56:55.507Z,18.62
2022-08-17T04:59:22.364Z,18.73
2022-08-17T05:01:51.147Z,18.82
2022-08-17T05:04:35.171Z,18.87
2022-08-17T05:07:03.147Z,18.84
2022-08-17T05:09:29.701Z,18.92
2022-08-17T05:12:00.715Z,18.93
2022-08-17T05:14:32.355Z,18.98
2022-08-17T05:17:00.996Z,19.07
2022-08-17T05:19:28.484Z,18.99
2022-08-17T05:21:54.922Z,19.15
2022-08-17T05:24:39.043Z,19.20
2022-08-17T05:27:07.742Z,19.27
2022-08-17T05:29:35.484Z,19.26
2022-08-17T05:32:38.839Z,19.23
2022-08-17T05:35:00.446Z,19.33
2022-08-17T05:37:27.168Z,19.37
2022-08-17T05:39:54.190Z,19.57
2022-08-17T05:42:20.721Z,19.61
2022-08-17T05:44:47.120Z,19.67
2022-08-17T05:47:13.642Z,19.76
2022-08-17T05:49:40.122Z,19.90
2022-08-17T05:52:19.845Z,20.10
2022-08-17T05:55:35.449Z,20.10
2022-08-17T05:58:27.813Z,20.11
2022-08-17T06:01:16.434Z,20.16
2022-08-17T06:04:00.530Z,20.28
2022-08-17T06:06:45.501Z,20.38
2022-08-17T06:09:49.169Z,20.91
2022-08-17T06:12:37.137Z,21.16
2022-08-17T06:15:03.485Z,21.32
2022-08-17T06:17:31.053Z,21.44
2022-08-17T06:20:07.914Z,21.53
2022-08-17T06:22:38.183Z,21.67
2022-08-17T06:25:31.464Z,21.75
2022-08-17T06:28:04.381Z,21.76
2022-08-17T06:30:59.902Z,21.91
2022-08-17T06:33:34.232Z,22.04
2022-08-17T06:36:25.140Z,22.08
2022-08-17T06:39:02.958Z,22.16
2022-08-17T06:41:42.944Z,22.21
2022-08-17T06:44:49.917Z,22.30
2022-08-17T06:47:11.134Z,22.34
2022-08-17T06:50:02.762Z,22.42
2022-08-17T06:52:45.946Z,22.50
2022-08-17T06:55:24.580Z,22.57
2022-08-17T06:57:57.456Z,22.66
2022-08-17T07:00:29.577Z,22.68
2022-08-17T07:03:08.369Z,22.69
2022-08-17T07:05:44.202Z,22.71
2022-08-17T07:08:27.749Z,22.77
2022-08-17T07:11:00.472Z,22.80
2022-08-17T07:13:33.380Z,22.87
2022-08-17T07:16:11.399Z,22.96
2022-08-17T07:18:37.932Z,23.01
2022-08-17T07:21:17.552Z,23.05
2022-08-17T07:23:54.766Z,23.04
2022-08-17T07:26:24.283Z,23.11
2022-08-17T07:28:51.491Z,23.24
2022-08-17T07:31:17.914Z,23.38
2022-08-17T07:34:00.985Z,23.39
2022-08-17T07:36:33.604Z,23.43
2022-08-17T07:39:03.267Z,23.45
2022-08-17T07:41:57.632Z,23.55
2022-08-17T07:44:26.437Z,23.61
2022-08-17T07:47:12.853Z,23.58
2022-08-17T07:49:48.712Z,23.62
2022-08-17T07:52:51.931Z,23.64
2022-08-17T07:55:29.471Z,23.71
2022-08-17T07:57:58.014Z,23.58
2022-08-17T08:00:32.031Z,23.64
2022-08-17T08:03:13.420Z,23.54
2022-08-17T08:05:52.858Z,23.57
2022-08-17T08:08:25.554Z,23.50
2022-08-17T08:11:10.800Z,23.58
2022-08-17T08:13:42.806Z,23.50
2022-08-17T08:16:29.511Z,23.55
2022-08-17T08:19:01.442Z,23.63
2022-08-17T08:21:51.283Z,23.74
2022-08-17T08:24:36.636Z,23.90
2022-08-17T08:27:20.465Z,23.86
2022-08-17T08:30:10.178Z,23.89
2022-08-17T08:32:58.618Z,23.91
2022-08-17T08:35:33.619Z,23.94
2022-08-17T08:38:08.306Z,23.98
2022-08-17T08:40:49.746Z,23.86
2022-08-17T08:43:36.176Z,23.72
2022-08-17T08:46:21.874Z,23.72
2022-08-17T08:49:19.371Z,23.67
2022-08-17T08:51:57.853Z,23.56
2022-08-17T08:54:53.897Z,23.50
2022-08-17T08:57:34.089Z,23.42
2022-08-17T09:00:03.934Z,23.40
2022-08-17T09:03:08.379Z,23.36
2022-08-17T09:05:34.786Z,23.33
2022-08-17T09:08:29.586Z,23.35
2022-08-17T09:11:02.688Z,23.33
2022-08-17T09:13:55.652Z,23.41
2022-08-17T09:16:35.995Z,23.43
2022-08-17T09:19:57.003Z,23.35
2022-08-17T09:22:37.462Z,23.38
2022-08-17T09:25:12.551Z,23.35
2022-08-17T09:27:57.281Z,23.27
2022-08-17T09:30:36.215Z,23.28
2022-08-17T09:33:07.665Z,23.33
2022-08-17T09:36:02.304Z,23.46
2022-08-17T09:38:59.877Z,23.46
2022-08-17T09:41:49.560Z,23.42
2022-08-17T09:44:44.196Z,23.45
2022-08-17T09:48:01.897Z,23.42
2022-08-17T09:51:04.358Z,23.41
2022-08-17T09:53:24.119Z,23.35
2022-08-17T09:56:48.277Z,23.25
2022-08-17T09:59:38.310Z,23.23
2022-08-17T10:02:31.762Z,23.17
2022-08-17T10:05:13.539Z,23.22
2022-08-17T10:07:56.577Z,23.12
2022-08-17T10:10:36.807Z,23.08
2022-08-17T10:13:15.721Z,22.97
2022-08-17T10:16:01.220Z,22.95
2022-08-17T10:18:37.599Z,23.00
2022-08-17T10:21:34.407Z,22.92
2022-08-17T10:25:23.864Z,22.85
2022-08-17T10:27:57.628Z,22.77
2022-08-17T10:30:28.364Z,22.73
2022-08-17T10:33:01.672Z,22.66
2022-08-17T10:35:59.251Z,22.63
2022-08-17T10:38:36.388Z,22.63
2022-08-17T10:41:27.094Z,22.60
2022-08-17T10:44:40.456Z,22.66
2022-08-17T10:47:15.773Z,22.65
2022-08-17T10:49:49.608Z,22.64
2022-08-17T10:52:28.005Z,22.65
2022-08-17T10:54:57.999Z,22.61
2022-08-17T10:57:31.776Z,22.66
2022-08-17T11:00:10.189Z,22.71
2022-08-17T11:02:51.145Z,22.72
2022-08-17T11:05:40.155Z,22.76
2022-08-17T11:08:30.346Z,22.70
2022-08-17T11:11:08.713Z,22.80
2022-08-17T11:14:06.203Z,22.80
2022-08-17T11:16:38.927Z,22.86
2022-08-17T11:19:49.069Z,23.09
2022-08-17T11:22:33.362Z,23.22
2022-08-17T11:25:31.714Z,23.63
2022-08-17T11:28:08.959Z,24.03
2022-08-17T11:30:57.980Z,24.56
2022-08-17T11:33:30.393Z,25.14
2022-08-17T11:36:20.138Z,25.18
2022-08-17T11:39:02.182Z,25.82
2022-08-17T11:41:49.564Z,26.02
2022-08-17T11:44:31.225Z,26.80
2022-08-17T11:47:32.465Z,27.35
2022-08-17T11:50:27.982Z,27.95
2022-08-17T11:52:55.024Z,27.71
2022-08-17T11:55:38.225Z,27.13
2022-08-17T11:58:29.048Z,27.24
2022-08-17T12:01:00.837Z,26.98
2022-08-17T12:03:33.318Z,26.80
2022-08-17T12:06:29.632Z,26.59
2022-08-17T12:09:34.467Z,26.89
2022-08-17T12:12:14.255Z,26.46
2022-08-17T12:15:10.020Z,26.24
2022-08-17T12:17:40.716Z,26.24
2022-08-17T12:20:37.133Z,26.56
2022-08-17T12:23:08.145Z,26.38
2022-08-17T12:25:45.688Z,26.28
2022-08-17T12:28:23.865Z,26.00
2022-08-17T12:30:51.988Z,26.08
2022-08-17T12:33:25.594Z,26.29
2022-08-17T12:36:03.114Z,26.44
2022-08-17T12:38:35.193Z,26.34
2022-08-17T12:41:24.664Z,26.31
2022-08-17T12:44:13.151Z,26.24
2022-08-17T12:46:48.916Z,26.29
2022-08-17T12:49:24.203Z,26.17
2022-08-17T12:51:57.041Z,26.16
2022-08-17T12:54:31.522Z,26.06
2022-08-17T12:57:04.658Z,26.14
2022-08-17T12:59:33.073Z,26.30
2022-08-17T13:02:00.838Z,26.44
2022-08-17T13:04:29.737Z,26.72
2022-08-17T13:06:59.557Z,26.21
2022-08-17T13:09:36.051Z,25.97
2022-08-17T13:12:08.482Z,26.05
2022-08-17T13:14:35.339Z,26.08
2022-08-17T13:17:07.351Z,26.18
2022-08-17T13:19:40.945Z,26.26
2022-08-17T13:22:11.963Z,26.31
2022-08-17T13:24:38.921Z,26.78
2022-08-17T13:27:09.939Z,26.69
2022-08-17T13:29:51.623Z,26.55
2022-08-17T13:32:43.580Z,26.59
2022-08-17T13:35:39.398Z,26.60
2022-08-17T13:38:10.085Z,26.41
2022-08-17T13:40:53.001Z,26.18
2022-08-17T13:43:44.360Z,25.96
2022-08-17T13:46:19.706Z,25.58
2022-08-17T13:48:56.089Z,25.89
2022-08-17T13:51:26.721Z,26.09
2022-08-17T13:53:56.662Z,26.14
2022-08-17T13:56:40.503Z,25.92
2022-08-17T13:59:54.564Z,25.68
2022-08-17T14:02:22.680Z,25.56
2022-08-17T14:04:54.274Z,25.97
2022-08-17T14:07:27.110Z,26.03
2022-08-17T14:09:58.390Z,26.21
2022-08-17T14:12:27.284Z,26.37
2022-08-17T14:14:58.804Z,26.45
2022-08-17T14:17:28.723Z,25.91
2022-08-17T14:19:55.654Z,26.28
2022-08-17T14:22:30.359Z,26.16
2022-08-17T14:24:59.035Z,25.69
2022-08-17T14:27:27.982Z,25.57
2022-08-17T14:29:55.641Z,25.44
2022-08-17T14:32:26.575Z,25.15
2022-08-17T14:34:56.607Z,25.26
2022-08-17T14:37:27.859Z,25.52
2022-08-17T14:39:55.951Z,25.85
2022-08-17T14:42:24.679Z,26.27
2022-08-17T14:44:54.977Z,26.22
2022-08-17T14:47:21.636Z,26.20
2022-08-17T14:49:48.513Z,26.25
2022-08-17T14:52:21.575Z,26.42
2022-08-17T14:54:51.234Z,26.39
2022-08-17T14:57:33.984Z,26.14
2022-08-17T15:00:01.995Z,25.88
2022-08-17T15:02:30.823Z,25.82
2022-08-17T15:05:03.944Z,25.51
2022-08-17T15:07:31.251Z,25.39
2022-08-17T15:10:00.514Z,25.53
2022-08-17T15:12:32.283Z,25.57
2022-08-17T15:15:00.623Z,25.74
2022-08-17T15:17:27.129Z,26.03
2022-08-17T15:20:17.901Z,25.95
2022-08-17T15:22:46.784Z,25.79
2022-08-17T15:25:14.439Z,25.81
2022-08-17T15:27:41.269Z,25.68
2022-08-17T15:30:09.832Z,25.61
2022-08-17T15:32:38.451Z,25.50
2022-08-17T15:35:07.647Z,25.31
2022-08-17T15:37:34.285Z,25.42
2022-08-17T15:40:01.125Z,25.42
2022-08-17T15:42:29.251Z,25.42
2022-08-17T15:44:55.956Z,25.40
2022-08-17T15:47:22.516Z,25.46
2022-08-17T15:49:48.981Z,25.53
2022-08-17T15:52:29.810Z,25.43
2022-08-17T15:54:59.352Z,25.49
2022-08-17T15:57:27.065Z,25.52
2022-08-17T15:59:58.900Z,25.46
2022-08-17T16:03:14.084Z,25.34
2022-08-17T16:05:24.145Z,25.29
2022-08-17T16:07:51.860Z,25.20
2022-08-17T16:10:19.365Z,25.11
2022-08-17T16:12:47.952Z,25.08
2022-08-17T16:15:15.260Z,25.11
2022-08-17T16:17:42.272Z,24.86
2022-08-17T16:20:19.918Z,24.83
2022-08-17T16:22:49.735Z,24.77
2022-08-17T16:25:19.849Z,24.68
2022-08-17T16:27:48.286Z,24.73
2022-08-17T16:30:17.636Z,24.68
2022-08-17T16:32:44.647Z,24.54
2022-08-17T16:35:12.790Z,24.41
2022-08-17T16:37:40.262Z,24.44
2022-08-17T16:40:11.781Z,24.49
2022-08-17T16:42:39.637Z,24.55
2022-08-17T16:45:13.001Z,24.47
2022-08-17T16:47:40.075Z,24.44
2022-08-17T16:50:08.263Z,24.38
2022-08-17T16:52:35.252Z,24.21
2022-08-17T16:55:03.740Z,24.25
2022-08-17T16:57:30.307Z,24.27
2022-08-17T16:59:56.978Z,24.33
2022-08-17T17:02:38.074Z,24.23
2022-08-17T17:05:25.189Z,24.09
2022-08-17T17:08:16.214Z,23.99
2022-08-17T17:10:47.564Z,23.97
2022-08-17T17:13:32.180Z,23.81
2022-08-17T17:16:00.622Z,23.74
2022-08-17T17:19:03.150Z,23.78
2022-08-17T17:21:47.341Z,23.85
2022-08-17T17:24:21.269Z,23.87
2022-08-17T17:26:55.368Z,23.81
2022-08-17T17:29:24.857Z,23.79
2022-08-17T17:32:13.686Z,23.75
2022-08-17T17:34:50.869Z,23.69
2022-08-17T17:37:27.283Z,23.78
2022-08-17T17:39:57.634Z,23.76
2022-08-17T17:42:31.456Z,23.81
2022-08-17T17:45:04.670Z,23.81
2022-08-17T17:47:31.842Z,23.75
2022-08-17T17:50:01.324Z,23.68
2022-08-17T17:52:36.684Z,23.60
2022-08-17T17:55:18.224Z,23.65
2022-08-17T17:57:57.783Z,23.56
2022-08-17T18:00:39.141Z,23.47
2022-08-17T18:03:22.303Z,23.37
2022-08-17T18:06:24.192Z,23.26
2022-08-17T18:09:02.603Z,23.25
2022-08-17T18:11:59.008Z,23.16
2022-08-17T18:14:45.578Z,23.08
2022-08-17T18:17:12.548Z,22.95
2022-08-17T18:19:39.793Z,22.88
2022-08-17T18:22:14.176Z,22.84
2022-08-17T18:24:44.194Z,22.67
2022-08-17T18:27:28.637Z,22.66
2022-08-17T18:29:57.349Z,22.59
2022-08-17T18:32:46.290Z,22.51
2022-08-17T18:35:14.174Z,22.41
2022-08-17T18:37:52.131Z,22.41
2022-08-17T18:40:21.501Z,22.31
2022-08-17T18:43:06.510Z,22.23
2022-08-17T18:45:44.559Z,22.10
2022-08-17T18:48:36.517Z,22.03
2022-08-17T18:51:41.461Z,21.95
2022-08-17T18:54:24.753Z,21.74
2022-08-17T18:56:53.445Z,21.68
2022-08-17T18:59:26.970Z,21.62
2022-08-17T19:01:58.457Z,21.49
2022-08-17T19:04:55.678Z,21.41
2022-08-17T19:07:24.945Z,21.29
2022-08-17T19:10:11.248Z,21.24
2022-08-17T19:12:46.090Z,21.05
2022-08-17T19:15:14.762Z,21.00
2022-08-17T19:17:51.319Z,21.09
2022-08-17T19:20:34.557Z,21.06
2022-08-17T19:23:16.933Z,21.10
2022-08-17T19:25:48.445Z,21.01
2022-08-17T19:28:38.452Z,20.85
2022-08-17T19:31:16.307Z,20.92
2022-08-17T19:33:43.087Z,20.89
2022-08-17T19:36:21.440Z,20.83
2022-08-17T19:38:59.270Z,20.87
2022-08-17T19:41:46.518Z,20.56
2022-08-17T19:44:40.441Z,20.32
2022-08-17T19:47:36.198Z,20.37
2022-08-17T19:50:14.007Z,20.32
2022-08-17T19:52:49.231Z,20.17
2022-08-17T19:55:20.731Z,20.23
2022-08-17T19:57:56.061Z,20.19
2022-08-17T20:00:22.691Z,20.03
2022-08-17T20:03:06.361Z,19.91
2022-08-17T20:06:01.372Z,19.95
2022-08-17T20:08:27.145Z,20.01
2022-08-17T20:10:58.468Z,20.03
2022-08-17T20:13:33.543Z,19.96
2022-08-17T20:16:01.867Z,19.79
2022-08-17T20:18:34.247Z,19.75
2022-08-17T20:21:20.171Z,19.71
2022-08-17T20:23:57.320Z,19.65
2022-08-17T20:26:30.239Z,19.70
2022-08-17T20:29:37.206Z,19.61
2022-08-17T20:32:14.916Z,19.44
2022-08-17T20:34:46.368Z,19.55
2022-08-17T20:37:12.729Z,19.57
2022-08-17T20:39:43.038Z,19.51
2022-08-17T20:42:15.531Z,19.49
2022-08-17T20:44:43.000Z,19.44
2022-08-17T20:47:12.155Z,19.46
2022-08-17T20:49:50.237Z,19.45
2022-08-17T20:52:50.671Z,19.40
2022-08-17T20:55:35.525Z,19.32
2022-08-17T20:58:24.287Z,19.08
2022-08-17T21:00:57.070Z,19.08
2022-08-17T21:03:23.572Z,19.04
2022-08-17T21:06:11.098Z,19.15
2022-08-17T21:09:16.185Z,19.09
2022-08-17T21:12:03.775Z,19.02
2022-08-17T21:15:01.749Z,19.03
2022-08-17T21:17:48.277Z,18.96
2022-08-17T21:20:27.547Z,18.97
2022-08-17T21:23:21.658Z,18.99
2022-08-17T21:26:04.982Z,18.87
2022-08-17T21:29:00.578Z,18.87
2022-08-17T21:31:35.602Z,18.79
2022-08-17T21:34:20.915Z,18.78
2022-08-17T21:36:48.437Z,18.64
2022-08-17T21:39:19.373Z,18.71
2022-08-17T21:41:53.589Z,18.66
2022-08-17T21:44:30.564Z,18.60
2022-08-17T21:47:13.856Z,18.53
2022-08-17T21:49:40.466Z,18.50
2022-08-17T21:52:07.585Z,18.57
2022-08-17T21:54:38.772Z,18.65
2022-08-17T21:57:15.319Z,18.54
2022-08-17T21:59:43.586Z,18.54
2022-08-17T22:02:24.071Z,18.57
2022-08-17T22:05:02.819Z,18.53
2022-08-17T22:07:48.517Z,18.50
2022-08-17T22:10:41.241Z,18.46
2022-08-17T22:13:17.486Z,18.42
2022-08-17T22:15:47.903Z,18.42
2022-08-17T22:18:19.907Z,18.37
2022-08-17T22:20:51.765Z,18.34
2022-08-17T22:23:51.297Z,18.31
2022-08-17T22:26:19.799Z,18.36
2022-08-17T22:28:49.715Z,18.28
2022-08-17T22:31:24.438Z,18.22
2022-08-17T22:33:59.987Z,18.18
2022-08-17T22:36:32.505Z,18.18
2022-08-17T22:39:23.067Z,18.24
2022-08-17T22:41:59.401Z,18.23
2022-08-17T22:44:29.442Z,18.11
2022-08-17T22:47:13.980Z,18.07
2022-08-17T22:49:54.222Z,18.12
2022-08-17T22:52:34.999Z,18.03
2022-08-17T22:55:31.109Z,18.07
2022-08-17T22:58:16.503Z,18.06
2022-08-17T23:00:45.880Z,17.87
2022-08-17T23:03:22.228Z,17.93
2022-08-17T23:06:10.716Z,17.95
2022-08-17T23:08:54.636Z,17.99
2022-08-17T23:11:36.892Z,17.95
2022-08-17T23:14:15.571Z,17.95
2022-08-17T23:16:42.701Z,17.95
2022-08-17T23:19:10.569Z,17.83
2022-08-17T23:21:37.389Z,17.83
2022-08-17T23:24:08.827Z,17.84
2022-08-17T23:26:37.988Z,17.82
2022-08-17T23:29:06.450Z,17.60
2022-08-17T23:31:34.705Z,17.73
2022-08-17T23:34:03.012Z,17.78
2022-08-17T23:36:31.499Z,17.76
2022-08-17T23:38:57.957Z,17.72
2022-08-17T23:41:28.097Z,17.73
2022-08-17T23:43:55.320Z,17.69
2022-08-17T23:46:25.052Z,17.76
2022-08-17T23:48:54.173Z,17.73
2022-08-17T23:51:25.118Z,17.63
2022-08-17T23:53:55.777Z,17.63
2022-08-17T23:56:25.734Z,17.62
2022-08-17T23:58:54.846Z,17.61
